Northern & Central Napa County

28 Stations

15 Minute Data | America/Los_Angeles
as of 12/8/23 5:09 AM PST
Station Date Time Temp (°F) RH (%) Dew Pt (°F) Wind Spd (mph) Wind Dir (°) Wind Gust (mph) Latest Rain (In) Daily Rain (In) Daily Min Temp (°F) Daily Max Temp (°F)
Calistoga-North 12/8/23 0500 31.6   7.3 100   0 31.6   7.3 - - - 0.00 0.00 31.2   7.5 35.6   9.6
Stags Leap Dist (Chimney Rock) 12/8/23 0500 32.4   8.0 100   0 32.3   8.0 1.2   0.1 SSE | 156 2.4   1.3 0.00 0.00 31.5   6.4 38.4   5.6
Diamond Mtn (McEachran) 12/8/23 0500 37.8   6.7 96   1 36.7   7.0 - - - - - 37.7   6.6 41.1   6.7
Diamond Mtn (Schramsberg) 12/8/23 0500 40.0   4.7 81   14 34.6   8.8 - - - 0.00 0.00 39.4   5.2 42.6   4.9
Stags Leap Dist (Silverado Vineyards) 12/8/23 0500 35.6   3.3 97   1 34.8   3.4 1.1   0.5 ESE | 102 3.0   1.1 0.00 0.00 33.5   5.2 38.0   7.5
Fotsch (Maple Lane) 12/8/23 0500 31.9   6.3 98   0 31.3   6.4 1.1   0.5 N | 2 3.5   1.5 0.00 0.00 31.5   6.6 36.9   7.2
Oak Knoll-East (Ranch 53) 12/8/23 0500 32.4   9.6 96   0 31.5   9.4 0.4   0.0 SE | 134 1.7   0.0 0.00 0.00 31.3   8.5 35.8   11.7
Rutherford-North (Mee Ln) 12/7/23 2100 40.2   8.1 98   6 39.6   6.3 1.6   0.7 NW | 304 3.5   0.2 0.00 0.13 39.4   0.0 56.2   0.9
Napa-North (Ranch 29) 12/8/23 0500 31.2   9.3 100   0 31.2   9.3 0.0   0.3 N | 0 0.0   1.1 0.00 0.00 31.0   7.8 36.4   8.0
St. Helena (NVV Office) 12/8/23 0500 36.8   3.6 - - 1.7   1.6 WNW | 296 4.6   3.2 0.00 0.00 34.7   5.4 39.7   5.4
Oakville 12/8/23 0500 33.8   6.8 96   1 32.9   7.1 1.5   1.3 WNW | 296 2.3   0.7 0.00 0.00 33.4   5.2 38.0   9.7
OV561-East 12/8/23 0500 34.1   6.6 - - - - - - - 33.5   4.1 38.1   9.2
OV518-West 12/8/23 0500 35.3   5.4 - - - - - - - 34.0   4.4 38.8   9.1
Napa-NW (Ranch 54) 12/8/23 0500 33.7   9.4 97   0 33.0   9.4 0.1   0.8 S | 182 1.1   0.9 0.00 0.00 33.2   6.7 37.7   9.3
Yountville-SE (Ranch 85) 12/8/23 0500 31.8   8.4 100   0 31.7   8.5 1.0   0.8 S | 181 2.0   0.0 0.00 0.00 31.6   7.5 37.0   7.6
Yountville-South (Ranch 87) 12/8/23 0500 37.0   1.9 100   0 36.9   1.9 1.3   0.2 NNW | 344 3.2   0.1 0.00 0.00 32.4   5.9 37.6   7.1
Rutherford Hill Estate 12/8/23 0500 39.8   4.5 89   11 36.8   7.5 0.9   0.2 NE | 52 2.2   0.4 0.00 0.00 39.0   5.1 42.1   7.2
Rutherford (STS) 12/8/23 0500 34.2   6.2 100   0 34.2   6.2 1.8   0.9 NW | 312 3.3   1.2 0.00 0.00 34.0   6.4 37.4   7.2
Borreo (Soda Canyon) 12/8/23 0500 32.9   5.9 98   0 32.3   5.9 0.8   0.3 NNW | 336 2.5   0.1 0.00 0.00 32.7   5.8 35.6   7.2
Oakville-NE (Ranch 88) 12/8/23 0500 34.4   5.4 95   1 33.1   5.6 1.2   1.2 N | 352 3.5   3.5 0.00 0.00 34.3   2.5 37.7   6.0
To Kalon Remote (TKKE) 12/8/23 0500 36.3   3.8 - - - - - - - 33.9   4.8 38.6   8.7
To Kalon 12/8/23 0500 36.0   3.5 98   1 35.6   3.2 1.5   0.2 NW | 324 2.2   0.2 0.00 0.00 35.8   3.1 38.7   10.8
To Kalon Remote (TKN5) 12/8/23 0500 35.0   5.0 - - - - - - - 32.6   5.7 38.8   9.7
St. Helena-North 12/8/23 0500 32.9   6.6 96   0 31.7   6.6 0.4   0.7 NW | 322 2.0   0.2 0.00 0.00 32.7   6.6 37.0   8.0
Wappo Hill 12/8/23 0500 34.1   4.4 100   0 34.1   4.4 0.9   0.1 S | 186 3.0   0.3 0.00 0.00 33.5   4.2 37.7   8.0
Yountville (Ranch 67) 12/8/23 0500 36.0   2.1 97   0 35.2   2.1 3.7   2.6 NNW | 344 8.1   5.6 0.00 0.00 33.0   4.2 38.0   6.1
Silver Oak 12/8/23 0500 34.6   5.5 96   1 33.6   5.8 0.6   0.4 NW | 306 2.3   0.1 0.00 0.00 34.2   3.9 37.9   9.3
Twomey Calistoga 12/8/23 0500 31.3   7.1 96   1 30.4   7.2 1.5   0.5 WNW | 283 2.4   0.2 0.00 0.00 31.1   7.4 37.0   6.2
Max     40.0 100 36.9 3.7 - 8.1 0.00 0.00 39.4 42.6
Avg     34.5 97 33.4 1.1 - 2.8 0.00 - - -
Min     31.2 81 30.4 0.0 - 0.0 0.00 0.00 31.0 35.6